createdAt,value
2023-05-17T00:00:33.664Z,100572.27
2023-05-17T00:03:00.762Z,100569.73
2023-05-17T00:05:27.927Z,100570.52
2023-05-17T00:07:54.924Z,100572.76
2023-05-17T00:10:21.878Z,100574.51
2023-05-17T00:12:48.769Z,100577.54
2023-05-17T00:15:15.737Z,100576.35
2023-05-17T00:17:42.638Z,100577.33
2023-05-17T00:20:09.675Z,100579.36
2023-05-17T00:22:36.656Z,100582.27
2023-05-17T00:25:04.267Z,100581.09
2023-05-17T00:27:31.126Z,100583.31
2023-05-17T00:29:58.066Z,100587.76
2023-05-17T00:32:25.082Z,100585.27
2023-05-17T00:34:52.017Z,100587.89
2023-05-17T00:37:18.926Z,100591.27
2023-05-17T00:39:45.836Z,100592.41
2023-05-17T00:42:12.868Z,100591.04
2023-05-17T00:44:39.761Z,100589.41
2023-05-17T00:47:06.896Z,100587.77
2023-05-17T00:49:33.901Z,100589.10
2023-05-17T00:52:00.839Z,100585.64
2023-05-17T00:54:27.867Z,100586.61
2023-05-17T00:56:54.975Z,100588.44
2023-05-17T00:59:22.685Z,100589.70
2023-05-17T01:01:49.569Z,100590.67
2023-05-17T01:04:16.654Z,100591.42
2023-05-17T01:06:43.597Z,100592.83
2023-05-17T01:09:10.485Z,100593.36
2023-05-17T01:11:56.253Z,100593.95
2023-05-17T01:14:27.779Z,100589.05
2023-05-17T01:17:01.385Z,100589.23
2023-05-17T01:19:53.919Z,100589.75
2023-05-17T01:22:32.365Z,100591.31
2023-05-17T01:24:59.295Z,100594.91
2023-05-17T01:27:26.154Z,100595.59
2023-05-17T01:29:53.095Z,100593.83
2023-05-17T01:32:20.033Z,100596.09
2023-05-17T01:34:46.972Z,100593.30
2023-05-17T01:37:13.800Z,100591.16
2023-05-17T01:39:41.592Z,100591.46
2023-05-17T01:42:14.753Z,100591.27
2023-05-17T01:44:55.574Z,100594.92
2023-05-17T01:47:41.031Z,100591.43
2023-05-17T01:50:08.092Z,100590.80
2023-05-17T01:52:38.774Z,100587.86
2023-05-17T01:55:13.125Z,100586.60
2023-05-17T01:57:40.010Z,100590.54
2023-05-17T02:00:08.770Z,100593.64
2023-05-17T02:02:46.293Z,100591.41
2023-05-17T02:05:13.542Z,100592.08
2023-05-17T02:07:40.637Z,100593.42
2023-05-17T02:10:08.123Z,100596.09
2023-05-17T02:12:36.191Z,100597.30
2023-05-17T02:15:03.276Z,100597.61
2023-05-17T02:17:30.210Z,100601.90
2023-05-17T02:19:57.130Z,100600.73
2023-05-17T02:22:24.016Z,100603.27
2023-05-17T02:24:50.886Z,100602.86
2023-05-17T02:27:17.743Z,100603.76
2023-05-17T02:29:44.604Z,100603.77
2023-05-17T02:32:11.542Z,100603.98
2023-05-17T02:34:38.472Z,100605.64
2023-05-17T02:37:05.604Z,100610.58
2023-05-17T02:39:33.717Z,100608.82
2023-05-17T02:42:00.679Z,100611.71
2023-05-17T02:44:27.528Z,100614.63
2023-05-17T02:46:54.590Z,100619.02
2023-05-17T02:49:21.514Z,100618.55
2023-05-17T02:51:48.383Z,100623.77
2023-05-17T02:54:15.290Z,100623.73
2023-05-17T02:56:42.384Z,100622.07
2023-05-17T02:59:09.527Z,100623.44
2023-05-17T03:01:37.900Z,100621.86
2023-05-17T03:04:05.078Z,100620.66
2023-05-17T03:06:32.143Z,100626.77
2023-05-17T03:08:59.123Z,100631.42
2023-05-17T03:11:26.140Z,100630.65
2023-05-17T03:13:54.449Z,100634.04
2023-05-17T03:16:25.189Z,100629.50
2023-05-17T03:18:52.444Z,100628.60
2023-05-17T03:21:19.848Z,100629.14
2023-05-17T03:36:48.681Z,100644.95
2023-05-17T03:39:15.821Z,100646.30
2023-05-17T03:41:43.126Z,100643.81
2023-05-17T03:44:10.808Z,100652.64
2023-05-17T03:46:37.798Z,100656.15
2023-05-17T03:49:05.303Z,100659.02
2023-05-17T03:51:33.569Z,100659.02
2023-05-17T03:54:01.288Z,100662.83
2023-05-17T03:56:29.701Z,100666.66
2023-05-17T03:58:56.720Z,100668.09
2023-05-17T04:01:23.744Z,100669.36
2023-05-17T04:03:50.921Z,100671.36
2023-05-17T04:06:18.614Z,100675.06
2023-05-17T04:08:45.642Z,100677.78
2023-05-17T04:11:15.473Z,100677.54
2023-05-17T04:13:43.116Z,100677.45
2023-05-17T04:16:10.288Z,100677.00
2023-05-17T04:18:38.830Z,100686.44
2023-05-17T04:21:06.099Z,100688.06
2023-05-17T04:23:34.286Z,100687.90
2023-05-17T04:26:01.660Z,100687.04
2023-05-17T04:28:29.085Z,100685.26
2023-05-17T04:30:56.193Z,100687.05
2023-05-17T04:33:24.376Z,100690.39
2023-05-17T04:35:51.759Z,100690.84
2023-05-17T04:38:18.764Z,100695.17
2023-05-17T04:40:45.709Z,100697.44
2023-05-17T04:43:12.682Z,100699.67
2023-05-17T04:45:41.167Z,100700.92
2023-05-17T04:48:08.520Z,100700.64
2023-05-17T04:50:35.857Z,100705.35
2023-05-17T04:53:05.084Z,100706.52
2023-05-17T04:55:33.390Z,100711.47
2023-05-17T04:58:00.763Z,100718.67
2023-05-17T05:00:28.217Z,100715.55
2023-05-17T05:03:02.351Z,100717.54
2023-05-17T05:05:29.468Z,100716.45
2023-05-17T05:07:57.832Z,100719.52
2023-05-17T05:10:24.944Z,100721.23
2023-05-17T05:12:52.115Z,100720.23
2023-05-17T05:15:19.368Z,100720.71
2023-05-17T05:17:51.528Z,100723.25
2023-05-17T05:20:19.298Z,100722.23
2023-05-17T05:22:46.253Z,100727.51
2023-05-17T05:25:13.779Z,100729.65
2023-05-17T05:27:40.664Z,100727.77
2023-05-17T05:30:08.759Z,100728.40
2023-05-17T05:32:37.997Z,100732.14
2023-05-17T05:35:05.790Z,100733.90
2023-05-17T05:37:32.777Z,100736.59
2023-05-17T05:40:00.000Z,100736.38
2023-05-17T05:42:27.803Z,100741.62
2023-05-17T05:44:54.794Z,100744.44
2023-05-17T05:47:22.664Z,100740.23
2023-05-17T05:49:49.539Z,100739.77
2023-05-17T05:52:16.462Z,100741.67
2023-05-17T05:54:44.160Z,100744.56
2023-05-17T05:57:11.178Z,100746.38
2023-05-17T05:59:38.175Z,100749.14
2023-05-17T06:02:05.920Z,100746.05
2023-05-17T06:04:43.943Z,100745.24
2023-05-17T06:07:12.548Z,100748.94
2023-05-17T06:09:39.401Z,100750.33
2023-05-17T06:12:06.339Z,100748.15
2023-05-17T06:14:33.258Z,100745.13
2023-05-17T06:17:00.242Z,100751.91
2023-05-17T06:19:27.263Z,100753.49
2023-05-17T06:21:56.501Z,100753.34
2023-05-17T06:24:23.416Z,100755.68
2023-05-17T06:26:51.077Z,100757.27
2023-05-17T06:29:18.167Z,100757.57
2023-05-17T06:31:45.218Z,100761.16
2023-05-17T06:34:13.488Z,100763.72
2023-05-17T06:36:40.931Z,100766.61
2023-05-17T06:39:08.720Z,100766.00
2023-05-17T06:41:35.863Z,100766.73
2023-05-17T06:44:02.809Z,100767.41
2023-05-17T06:46:30.198Z,100768.67
2023-05-17T06:48:58.534Z,100766.20
2023-05-17T06:51:26.128Z,100766.49
2023-05-17T06:53:54.127Z,100771.80
2023-05-17T06:56:21.145Z,100767.20
2023-05-17T06:58:48.066Z,100762.72
2023-05-17T07:01:15.997Z,100761.70
2023-05-17T07:03:43.488Z,100763.52
2023-05-17T07:06:10.829Z,100757.61
2023-05-17T07:08:37.794Z,100758.20
2023-05-17T07:11:08.380Z,100759.67
2023-05-17T07:13:35.366Z,100756.23
2023-05-17T07:16:02.452Z,100756.76
2023-05-17T07:18:29.612Z,100754.20
2023-05-17T07:20:56.623Z,100752.95
2023-05-17T07:23:23.666Z,100753.34
2023-05-17T07:25:51.263Z,100756.08
2023-05-17T07:28:18.144Z,100756.64
2023-05-17T07:30:45.059Z,100758.79
2023-05-17T07:33:12.645Z,100762.04
2023-05-17T07:35:39.558Z,100761.30
2023-05-17T07:38:06.381Z,100767.17
2023-05-17T07:40:35.379Z,100763.63
2023-05-17T07:43:02.289Z,100761.59
2023-05-17T07:45:29.326Z,100761.66
2023-05-17T07:47:56.876Z,100761.64
2023-05-17T07:50:24.217Z,100761.13
2023-05-17T07:52:51.094Z,100762.13
2023-05-17T07:55:18.145Z,100759.79
2023-05-17T07:57:45.409Z,100763.57
2023-05-17T08:00:13.695Z,100762.79
2023-05-17T08:02:41.298Z,100762.17
2023-05-17T08:05:08.940Z,100764.19
2023-05-17T08:07:35.868Z,100759.21
2023-05-17T08:10:02.900Z,100760.37
2023-05-17T08:12:29.779Z,100767.08
2023-05-17T08:14:57.050Z,100770.29
2023-05-17T08:17:24.055Z,100769.13
2023-05-17T08:19:51.122Z,100767.88
2023-05-17T08:22:18.095Z,100767.82
2023-05-17T08:24:47.930Z,100766.71
2023-05-17T08:27:15.052Z,100766.52
2023-05-17T08:29:42.060Z,100767.36
2023-05-17T08:32:08.981Z,100773.77
2023-05-17T08:34:36.952Z,100773.13
2023-05-17T08:37:04.057Z,100771.20
2023-05-17T08:39:31.685Z,100776.12
2023-05-17T08:41:59.875Z,100775.09
2023-05-17T08:44:28.465Z,100771.48
2023-05-17T08:46:55.397Z,100773.24
2023-05-17T08:49:23.073Z,100773.20
2023-05-17T08:51:50.221Z,100774.25
2023-05-17T08:54:17.100Z,100776.20
2023-05-17T08:56:44.147Z,100777.11
2023-05-17T08:59:11.039Z,100774.27
2023-05-17T09:01:40.082Z,100772.21
2023-05-17T09:04:07.281Z,100772.92
2023-05-17T09:06:34.185Z,100768.27
2023-05-17T09:09:02.503Z,100772.00
2023-05-17T09:11:31.082Z,100775.42
2023-05-17T09:14:07.615Z,100774.16
2023-05-17T09:16:36.418Z,100776.84
2023-05-17T09:19:05.425Z,100772.39
2023-05-17T09:21:32.855Z,100772.17
2023-05-17T09:24:07.749Z,100770.27
2023-05-17T09:26:46.012Z,100769.33
2023-05-17T09:29:20.999Z,100769.51
2023-05-17T09:31:48.010Z,100768.39
2023-05-17T09:34:18.139Z,100768.07
2023-05-17T09:36:45.096Z,100764.45
2023-05-17T09:39:13.763Z,100763.63
2023-05-17T09:41:45.629Z,100761.40
2023-05-17T09:44:13.514Z,100763.63
2023-05-17T09:46:48.276Z,100762.88
2023-05-17T09:49:17.610Z,100763.78
2023-05-17T09:51:48.587Z,100759.20
2023-05-17T09:54:15.628Z,100758.65
2023-05-17T09:56:43.270Z,100758.70
2023-05-17T09:59:15.195Z,100760.92
2023-05-17T10:01:43.977Z,100759.89
2023-05-17T10:04:11.955Z,100757.02
2023-05-17T10:06:49.751Z,100753.35
2023-05-17T10:09:19.017Z,100749.27
2023-05-17T10:11:46.895Z,100751.29
2023-05-17T10:14:32.475Z,100754.08
2023-05-17T10:16:59.712Z,100751.30
2023-05-17T10:19:26.757Z,100750.32
2023-05-17T10:21:56.535Z,100749.88
2023-05-17T10:24:24.755Z,100746.06
2023-05-17T10:26:54.941Z,100749.76
2023-05-17T10:29:21.851Z,100751.10
2023-05-17T10:31:50.331Z,100752.64
2023-05-17T10:34:17.357Z,100748.56
2023-05-17T10:36:44.365Z,100752.20
2023-05-17T10:39:11.346Z,100750.69
2023-05-17T10:41:43.267Z,100746.90
2023-05-17T10:44:12.763Z,100749.23
2023-05-17T10:46:39.848Z,100749.15
2023-05-17T10:49:07.216Z,100746.70
2023-05-17T10:51:35.182Z,100748.39
2023-05-17T10:54:18.859Z,100748.46
2023-05-17T10:56:52.382Z,100745.57
2023-05-17T10:59:19.916Z,100746.67
2023-05-17T11:02:06.427Z,100749.73
2023-05-17T11:04:37.801Z,100748.29
2023-05-17T11:07:17.423Z,100742.44
2023-05-17T11:09:45.171Z,100744.17
2023-05-17T11:12:13.008Z,100745.71
2023-05-17T11:14:49.279Z,100745.50
2023-05-17T11:17:20.625Z,100742.36
2023-05-17T11:20:27.250Z,100745.61
2023-05-17T11:23:02.615Z,100747.64
2023-05-17T11:25:31.241Z,100747.40
2023-05-17T11:27:58.370Z,100746.77
2023-05-17T11:30:32.314Z,100746.41
2023-05-17T11:33:07.017Z,100747.09
2023-05-17T11:35:39.066Z,100745.41
2023-05-17T11:38:22.351Z,100739.30
2023-05-17T11:40:50.967Z,100736.77
2023-05-17T11:43:23.069Z,100739.90
2023-05-17T11:45:52.898Z,100735.41
2023-05-17T11:48:22.233Z,100736.98
2023-05-17T11:50:50.074Z,100739.26
2023-05-17T11:53:17.035Z,100734.85
2023-05-17T11:55:48.195Z,100736.70
2023-05-17T11:58:16.302Z,100733.86
2023-05-17T12:00:43.497Z,100729.46
2023-05-17T12:03:27.395Z,100729.79
2023-05-17T12:06:13.795Z,100728.70
2023-05-17T12:08:45.417Z,100727.00
2023-05-17T12:11:17.506Z,100722.90
2023-05-17T12:13:46.913Z,100725.08
2023-05-17T12:16:17.577Z,100719.56
2023-05-17T12:18:49.775Z,100718.77
2023-05-17T12:21:18.289Z,100715.35
2023-05-17T12:23:47.852Z,100717.01
2023-05-17T12:26:16.546Z,100713.03
2023-05-17T12:28:47.393Z,100707.78
2023-05-17T12:31:18.635Z,100701.78
2023-05-17T12:33:47.956Z,100697.45
2023-05-17T12:36:15.038Z,100692.62
2023-05-17T12:38:42.646Z,100690.46
2023-05-17T12:41:14.811Z,100689.02
2023-05-17T12:43:43.624Z,100682.63
2023-05-17T12:46:20.825Z,100682.91
2023-05-17T12:48:49.495Z,100681.46
2023-05-17T12:51:23.375Z,100678.27
2023-05-17T12:53:54.908Z,100676.16
2023-05-17T12:56:28.653Z,100673.73
2023-05-17T12:59:14.194Z,100669.92
2023-05-17T13:01:48.605Z,100668.15
2023-05-17T13:04:17.247Z,100669.81
2023-05-17T13:06:47.931Z,100670.05
2023-05-17T13:09:16.086Z,100670.63
2023-05-17T13:11:43.176Z,100667.57
2023-05-17T13:14:12.577Z,100670.45
2023-05-17T13:16:40.363Z,100673.32
2023-05-17T13:19:13.991Z,100672.55
2023-05-17T13:21:41.165Z,100672.27
2023-05-17T13:24:09.488Z,100673.44
2023-05-17T13:26:36.414Z,100669.04
2023-05-17T13:29:03.531Z,100670.38
2023-05-17T13:31:30.481Z,100672.05
2023-05-17T13:33:57.469Z,100674.08
2023-05-17T13:36:24.480Z,100672.66
2023-05-17T13:38:51.320Z,100672.83
2023-05-17T13:41:18.242Z,100674.63
2023-05-17T13:43:45.082Z,100675.36
2023-05-17T13:46:11.910Z,100671.14
2023-05-17T13:48:40.460Z,100674.27
2023-05-17T13:51:09.706Z,100672.99
2023-05-17T13:53:38.709Z,100669.38
2023-05-17T13:56:06.023Z,100667.44
2023-05-17T13:58:33.030Z,100667.67
2023-05-17T14:00:59.850Z,100667.09
2023-05-17T14:03:26.997Z,100667.11
2023-05-17T14:05:54.397Z,100668.15
2023-05-17T14:08:21.356Z,100665.14
2023-05-17T14:10:48.532Z,100667.20
2023-05-17T14:13:15.641Z,100670.23
2023-05-17T14:15:42.498Z,100670.68
2023-05-17T14:18:09.829Z,100667.25
2023-05-17T14:20:36.858Z,100667.02
2023-05-17T14:23:03.804Z,100667.11
2023-05-17T14:25:30.838Z,100665.15
2023-05-17T14:27:57.872Z,100667.16
2023-05-17T14:30:24.849Z,100662.41
2023-05-17T14:32:51.869Z,100663.05
2023-05-17T14:35:18.988Z,100661.85
2023-05-17T14:37:45.963Z,100658.91
2023-05-17T14:40:13.071Z,100655.15
2023-05-17T14:42:40.137Z,100652.14
2023-05-17T14:45:08.217Z,100651.63
2023-05-17T14:47:36.926Z,100649.98
2023-05-17T14:50:04.550Z,100651.92
2023-05-17T14:52:31.614Z,100650.98
2023-05-17T14:54:58.895Z,100653.40
2023-05-17T14:57:26.080Z,100648.96
2023-05-17T14:59:53.152Z,100651.54
2023-05-17T15:02:20.298Z,100644.63
2023-05-17T15:04:47.603Z,100643.31
2023-05-17T15:07:14.626Z,100643.70
2023-05-17T15:09:41.932Z,100647.46
2023-05-17T15:12:14.019Z,100646.23
2023-05-17T15:14:41.141Z,100644.42
2023-05-17T15:17:08.247Z,100643.80
2023-05-17T15:19:35.250Z,100640.80
2023-05-17T15:22:02.317Z,100637.00
2023-05-17T15:24:29.768Z,100636.58
2023-05-17T15:26:56.906Z,100637.17
2023-05-17T15:29:23.797Z,100636.17
2023-05-17T15:31:50.713Z,100636.48
2023-05-17T15:34:17.821Z,100634.21
2023-05-17T15:36:44.899Z,100629.48
2023-05-17T15:39:11.854Z,100630.56
2023-05-17T15:44:09.465Z,100629.48
2023-05-17T15:46:36.730Z,100623.80
2023-05-17T15:49:03.605Z,100623.14
2023-05-17T15:51:31.024Z,100627.13
2023-05-17T15:53:58.065Z,100625.52
2023-05-17T15:56:25.040Z,100628.02
2023-05-17T15:58:52.678Z,100625.13
2023-05-17T16:01:19.585Z,100626.05
2023-05-17T16:03:46.984Z,100626.02
2023-05-17T16:06:14.622Z,100627.64
2023-05-17T16:08:42.133Z,100627.14
2023-05-17T16:11:10.034Z,100628.16
2023-05-17T16:13:37.072Z,100627.29
2023-05-17T16:16:04.098Z,100627.09
2023-05-17T16:18:31.908Z,100625.44
2023-05-17T16:21:03.168Z,100626.04
2023-05-17T16:23:30.100Z,100628.55
2023-05-17T16:25:57.175Z,100628.61
2023-05-17T16:28:24.161Z,100630.73
2023-05-17T16:30:51.839Z,100632.78
2023-05-17T16:33:27.958Z,100634.77
2023-05-17T16:36:00.939Z,100637.13
2023-05-17T16:38:27.967Z,100639.95
2023-05-17T16:40:54.879Z,100638.66
2023-05-17T16:43:21.814Z,100635.41
2023-05-17T16:45:50.077Z,100632.86
2023-05-17T16:48:17.662Z,100634.46
2023-05-17T16:50:44.757Z,100633.86
2023-05-17T16:53:14.471Z,100632.34
2023-05-17T16:55:42.316Z,100630.50
2023-05-17T16:58:59.750Z,100632.77
2023-05-17T17:01:29.770Z,100631.57
2023-05-17T17:04:07.593Z,100638.19
2023-05-17T17:06:34.784Z,100637.04
2023-05-17T17:09:02.080Z,100632.94
2023-05-17T17:11:29.099Z,100634.20
2023-05-17T17:14:15.313Z,100638.24
2023-05-17T17:16:42.451Z,100642.09
2023-05-17T17:19:13.026Z,100640.08
2023-05-17T17:21:42.376Z,100639.06
2023-05-17T17:24:09.345Z,100639.27
2023-05-17T17:26:36.396Z,100638.83
2023-05-17T17:29:47.622Z,100637.96
2023-05-17T17:32:14.572Z,100642.04
2023-05-17T17:34:41.550Z,100644.90
2023-05-17T17:37:08.632Z,100647.64
2023-05-17T17:39:35.982Z,100644.25
2023-05-17T17:42:03.041Z,100645.86
2023-05-17T17:44:29.964Z,100647.59
2023-05-17T17:46:56.901Z,100646.73
2023-05-17T17:49:26.936Z,100649.11
2023-05-17T17:51:53.998Z,100648.84
2023-05-17T17:54:21.546Z,100650.59
2023-05-17T17:57:14.098Z,100650.79
2023-05-17T17:59:41.240Z,100651.48
2023-05-17T18:02:08.112Z,100652.52
2023-05-17T18:04:35.259Z,100652.11
2023-05-17T18:07:02.918Z,100652.17
2023-05-17T18:09:29.776Z,100655.13
2023-05-17T18:11:57.305Z,100654.79
2023-05-17T18:14:24.389Z,100659.73
2023-05-17T18:16:51.651Z,100660.48
2023-05-17T18:19:18.989Z,100662.58
2023-05-17T18:21:46.415Z,100660.95
2023-05-17T18:24:13.420Z,100661.29
2023-05-17T18:26:40.577Z,100666.89
2023-05-17T18:29:07.514Z,100663.48
2023-05-17T18:31:34.516Z,100665.50
2023-05-17T18:34:01.499Z,100663.19
2023-05-17T18:36:28.575Z,100660.97
2023-05-17T18:38:58.747Z,100662.75
2023-05-17T18:41:26.237Z,100662.41
2023-05-17T18:43:53.337Z,100662.18
2023-05-17T18:46:20.292Z,100663.70
2023-05-17T18:48:47.271Z,100667.29
2023-05-17T18:51:15.875Z,100666.98
2023-05-17T18:53:42.860Z,100672.39
2023-05-17T18:56:09.766Z,100672.73
2023-05-17T18:58:36.702Z,100675.56
2023-05-17T19:01:03.794Z,100674.02
2023-05-17T19:03:31.253Z,100675.71
2023-05-17T19:05:58.567Z,100679.05
2023-05-17T19:08:25.615Z,100679.98
2023-05-17T19:10:52.535Z,100680.49
2023-05-17T19:13:19.412Z,100682.67
2023-05-17T19:15:46.639Z,100682.69
2023-05-17T19:18:13.588Z,100688.64
2023-05-17T19:20:40.535Z,100687.33
2023-05-17T19:23:07.583Z,100688.08
2023-05-17T19:25:34.706Z,100687.50
2023-05-17T19:28:01.643Z,100683.65
2023-05-17T19:30:32.555Z,100680.89
2023-05-17T19:32:59.923Z,100677.12
2023-05-17T19:35:26.779Z,100676.34
2023-05-17T19:37:56.653Z,100681.34
2023-05-17T19:40:24.321Z,100678.95
2023-05-17T19:42:51.329Z,100683.15
2023-05-17T19:45:18.260Z,100686.06
2023-05-17T19:47:45.202Z,100683.34
2023-05-17T19:50:12.219Z,100681.58
2023-05-17T19:52:39.342Z,100684.64
2023-05-17T19:55:06.541Z,100685.02
2023-05-17T19:57:33.801Z,100687.46
2023-05-17T20:00:00.878Z,100686.48
2023-05-17T20:02:27.897Z,100686.13
2023-05-17T20:04:54.833Z,100685.36
2023-05-17T20:07:25.896Z,100683.25
2023-05-17T20:09:53.512Z,100684.02
2023-05-17T20:12:20.885Z,100686.11
2023-05-17T20:14:47.809Z,100687.09
2023-05-17T20:17:14.694Z,100688.11
2023-05-17T20:19:41.566Z,100686.61
2023-05-17T20:22:08.495Z,100687.37
2023-05-17T20:24:35.358Z,100692.41
2023-05-17T20:27:02.601Z,100691.38
2023-05-17T20:29:29.564Z,100689.11
2023-05-17T20:31:56.612Z,100689.85
2023-05-17T20:34:24.635Z,100694.30
2023-05-17T20:36:51.536Z,100693.62
2023-05-17T20:39:19.710Z,100696.86
2023-05-17T20:41:51.433Z,100696.66
2023-05-17T20:44:45.341Z,100699.15
2023-05-17T20:47:55.471Z,100698.65
2023-05-17T20:50:47.405Z,100698.38
2023-05-17T20:53:14.851Z,100698.67
2023-05-17T20:55:44.858Z,100695.71
2023-05-17T20:58:11.761Z,100698.02
2023-05-17T21:00:38.621Z,100697.80
2023-05-17T21:03:05.641Z,100699.74
2023-05-17T21:05:36.175Z,100703.67
2023-05-17T21:08:03.166Z,100698.89
2023-05-17T21:10:30.398Z,100699.27
2023-05-17T21:12:57.625Z,100698.73
2023-05-17T21:15:25.192Z,100701.40
2023-05-17T21:17:52.472Z,100701.36
2023-05-17T21:20:20.029Z,100701.16
2023-05-17T21:22:48.294Z,100701.64
2023-05-17T21:25:15.210Z,100702.88
2023-05-17T21:27:42.070Z,100702.91
2023-05-17T21:30:09.293Z,100703.61
2023-05-17T21:32:36.342Z,100702.68
2023-05-17T21:35:03.362Z,100707.50
2023-05-17T21:37:30.167Z,100709.00
2023-05-17T21:39:57.076Z,100706.88
2023-05-17T21:42:24.301Z,100704.48
2023-05-17T21:44:51.202Z,100707.40
2023-05-17T21:47:18.163Z,100706.77
2023-05-17T21:49:45.046Z,100705.17
2023-05-17T21:52:11.928Z,100704.92
2023-05-17T21:54:39.287Z,100705.03
2023-05-17T21:57:06.212Z,100708.58
2023-05-17T21:59:33.328Z,100708.23
2023-05-17T22:02:00.384Z,100707.96
2023-05-17T22:04:27.347Z,100707.05
2023-05-17T22:06:55.891Z,100709.20
2023-05-17T22:09:23.172Z,100706.55
2023-05-17T22:11:50.241Z,100705.59
2023-05-17T22:14:17.309Z,100705.70
2023-05-17T22:16:44.598Z,100706.38
2023-05-17T22:19:11.612Z,100707.27
2023-05-17T22:21:38.468Z,100708.89
2023-05-17T22:24:05.661Z,100709.23
2023-05-17T22:26:32.620Z,100708.44
2023-05-17T22:28:59.519Z,100712.05
2023-05-17T22:31:26.449Z,100713.77
2023-05-17T22:33:54.029Z,100713.33
2023-05-17T22:36:24.904Z,100714.07
2023-05-17T22:38:51.935Z,100712.17
2023-05-17T22:41:18.769Z,100712.63
2023-05-17T22:43:45.879Z,100712.35
2023-05-17T22:46:12.793Z,100711.66
2023-05-17T22:48:40.589Z,100711.44
2023-05-17T22:51:07.702Z,100714.34
2023-05-17T22:53:34.663Z,100720.86
2023-05-17T22:56:01.535Z,100721.91
2023-05-17T22:58:28.406Z,100722.09
2023-05-17T23:00:56.138Z,100724.89
2023-05-17T23:03:23.038Z,100723.10
2023-05-17T23:05:51.514Z,100728.95
2023-05-17T23:08:18.377Z,100725.59
2023-05-17T23:10:45.686Z,100727.41
2023-05-17T23:13:12.910Z,100731.67
2023-05-17T23:15:40.906Z,100735.09
2023-05-17T23:18:08.136Z,100736.67
2023-05-17T23:20:36.064Z,100739.47
2023-05-17T23:23:03.109Z,100736.42
2023-05-17T23:25:30.147Z,100736.31
2023-05-17T23:28:00.113Z,100733.48
2023-05-17T23:30:27.976Z,100734.81
2023-05-17T23:32:55.453Z,100738.45
2023-05-17T23:35:23.417Z,100739.45
2023-05-17T23:37:50.406Z,100740.56
2023-05-17T23:40:17.236Z,100740.77
2023-05-17T23:42:44.184Z,100744.45
2023-05-17T23:45:11.183Z,100745.61
2023-05-17T23:47:40.810Z,100744.45
2023-05-17T23:50:12.209Z,100742.33
2023-05-17T23:52:39.469Z,100743.84
2023-05-17T23:55:07.430Z,100742.59
2023-05-17T23:57:35.365Z,100746.02
